Time;durP1;ratioP1;P1;durP2;ratioP2;P2;SDS_P1;SDS_P2;PMS_P1;PMS_P2;Temp;Humidity;BMP_temperature;BMP_pressure;BME280_temperature;BME280_humidity;BME280_pressure;Samples;Min_cycle;Max_cycle;Signal;HPM_P1;HPM_P2
2023/06/25 00:00:33;;;;;;;8.65;5.50;;;;;;;19.61;72.07;101858.81;5045665;28;20112;-75
2023/06/25 00:03:01;;;;;;;6.75;4.68;;;;;;;19.55;72.88;101868.03;5045801;28;20050;-75
2023/06/25 00:05:28;;;;;;;9.38;5.10;;;;;;;19.49;72.94;101856.78;5042794;28;20569;-75
2023/06/25 00:07:55;;;;;;;10.05;5.43;;;;;;;19.44;73.33;101857.03;5045500;28;20056;-74
2023/06/25 00:10:22;;;;;;;6.70;4.85;;;;;;;19.41;73.43;101857.16;5045166;28;20139;-74
2023/06/25 00:12:52;;;;;;;7.70;5.45;;;;;;;19.38;73.16;101849.34;5045096;28;20041;-74
2023/06/25 00:15:19;;;;;;;10.55;5.55;;;;;;;19.35;73.57;101849.47;5045856;28;20037;-74
2023/06/25 00:17:47;;;;;;;8.63;5.18;;;;;;;19.29;74.03;101849.78;5044684;28;20038;-74
2023/06/25 00:20:17;;;;;;;7.18;5.25;;;;;;;19.26;74.15;101849.97;5046623;28;20104;-74
2023/06/25 00:22:45;;;;;;;6.97;5.50;;;;;;;19.24;74.55;101850.91;5050565;28;20045;-74
2023/06/25 00:25:31;;;;;;;7.72;5.57;;;;;;;19.22;74.38;101854.59;5046077;28;20048;-74
2023/06/25 00:28:00;;;;;;;7.18;5.50;;;;;;;19.23;74.58;101842.94;5046495;28;20041;-74
2023/06/25 00:30:27;;;;;;;8.50;5.10;;;;;;;19.19;75.02;101844.06;5045298;28;20480;-76
2023/06/25 00:32:55;;;;;;;7.85;5.65;;;;;;;19.18;75.14;101836.97;5048339;28;20959;-76
2023/06/25 00:35:27;;;;;;;8.60;5.07;;;;;;;19.15;75.87;101843.34;5046906;28;20042;-76
2023/06/25 00:37:57;;;;;;;8.43;5.47;;;;;;;19.11;75.47;101840.91;5044564;28;20888;-76
2023/06/25 00:40:25;;;;;;;8.60;5.50;;;;;;;19.06;75.44;101838.47;5046277;28;20053;-75
2023/06/25 00:42:59;;;;;;;7.28;5.30;;;;;;;19.04;75.62;101827.00;5046407;28;20227;-77
2023/06/25 00:45:26;;;;;;;8.70;5.75;;;;;;;19.01;75.87;101832.47;5047035;28;20092;-76
2023/06/25 00:47:55;;;;;;;6.93;5.35;;;;;;;19.01;75.95;101845.84;5044576;28;20057;-76
2023/06/25 00:50:23;;;;;;;7.80;5.25;;;;;;;18.97;76.07;101831.78;5046048;28;20041;-76
2023/06/25 00:52:52;;;;;;;9.60;5.82;;;;;;;18.95;76.08;101830.97;5048577;28;20521;-76
2023/06/25 00:55:20;;;;;;;7.55;5.97;;;;;;;18.92;76.22;101833.78;5035497;28;20046;-76
2023/06/25 00:57:47;;;;;;;8.52;6.18;;;;;;;18.88;76.66;101830.38;5046468;28;20045;-76
2023/06/25 01:00:16;;;;;;;9.68;5.90;;;;;;;18.84;76.62;101827.94;5047832;28;20057;-76
2023/06/25 01:03:03;;;;;;;7.50;5.65;;;;;;;18.78;76.87;101823.75;5048779;28;20148;-76
2023/06/25 01:05:51;;;;;;;9.90;6.70;;;;;;;18.76;76.72;101821.19;5045789;28;20075;-76
2023/06/25 01:08:39;;;;;;;10.38;6.80;;;;;;;18.73;77.02;101815.97;5046884;28;20627;-76
2023/06/25 01:11:10;;;;;;;8.02;6.47;;;;;;;18.71;76.70;101822.34;5048060;28;20049;-76
2023/06/25 01:13:38;;;;;;;8.77;6.28;;;;;;;18.69;77.42;101824.22;5045260;28;20551;-75
2023/06/25 01:16:06;;;;;;;8.23;7.15;;;;;;;18.63;77.93;101826.28;5046496;28;20046;-75
2023/06/25 01:18:33;;;;;;;9.25;6.93;;;;;;;18.60;78.38;101828.22;5045511;28;20038;-75
2023/06/25 01:21:03;;;;;;;9.70;6.50;;;;;;;18.53;78.21;101816.09;5035157;28;20584;-75
2023/06/25 01:23:32;;;;;;;10.80;6.45;;;;;;;18.50;78.33;101817.13;5045799;28;20049;-73
2023/06/25 01:25:59;;;;;;;8.80;6.53;;;;;;;18.46;78.52;101807.53;5045475;28;20049;-76
2023/06/25 01:28:26;;;;;;;10.15;7.20;;;;;;;18.43;78.38;101805.00;5045967;28;20049;-75
2023/06/25 01:30:55;;;;;;;9.15;7.20;;;;;;;18.40;78.87;101808.69;5036088;28;20049;-76
2023/06/25 01:33:25;;;;;;;11.35;7.32;;;;;;;18.38;79.07;101807.03;5042453;28;20045;-76
2023/06/25 01:35:53;;;;;;;9.35;6.95;;;;;;;18.33;79.66;101809.91;5044846;28;20057;-75
2023/06/25 01:38:21;;;;;;;10.30;7.07;;;;;;;18.28;79.78;101802.13;5036282;28;20126;-74
2023/06/25 01:40:48;;;;;;;9.52;7.18;;;;;;;18.23;79.93;101800.59;5038679;28;20473;-75
2023/06/25 01:43:16;;;;;;;9.13;7.38;;;;;;;18.20;80.25;101793.63;5043372;28;20043;-74
2023/06/25 01:45:43;;;;;;;11.80;7.20;;;;;;;18.18;81.25;101791.97;5046351;28;20603;-75
2023/06/25 01:48:10;;;;;;;12.82;7.25;;;;;;;18.16;82.17;101786.72;5042421;28;20399;-75
2023/06/25 01:50:37;;;;;;;11.50;7.75;;;;;;;18.18;81.96;101783.97;5055643;28;20057;-75
2023/06/25 01:53:04;;;;;;;10.25;7.43;;;;;;;18.18;81.93;101784.81;5040487;28;20072;-75
2023/06/25 01:55:31;;;;;;;10.48;7.38;;;;;;;18.20;82.35;101779.44;5039431;28;20056;-76
2023/06/25 01:57:58;;;;;;;9.65;7.13;;;;;;;18.25;81.91;101778.28;5046077;28;20049;-75
2023/06/25 02:00:26;;;;;;;13.13;7.28;;;;;;;18.27;81.64;101770.19;5045908;28;20060;-76
2023/06/25 02:03:02;;;;;;;10.27;7.20;;;;;;;18.27;81.29;101772.84;5048065;28;20141;-74
2023/06/25 02:05:30;;;;;;;9.73;7.43;;;;;;;18.24;81.33;101765.88;5049002;28;20048;-74
2023/06/25 02:07:57;;;;;;;9.20;7.28;;;;;;;18.18;80.70;101762.63;5048836;28;20045;-74
2023/06/25 02:10:24;;;;;;;9.88;7.18;;;;;;;18.12;80.54;101758.44;5047610;28;20041;-73
2023/06/25 02:12:51;;;;;;;9.23;7.30;;;;;;;18.09;80.47;101758.56;5044956;28;20041;-73
2023/06/25 02:15:19;;;;;;;11.23;7.32;;;;;;;18.03;80.38;101756.22;5045930;28;20037;-73
2023/06/25 02:17:46;;;;;;;8.07;6.97;;;;;;;17.96;80.41;101769.81;5045839;28;20064;-74
2023/06/25 02:20:13;;;;;;;10.30;7.32;;;;;;;17.90;80.51;101761.22;5045374;28;20042;-73
2023/06/25 02:22:40;;;;;;;10.70;7.43;;;;;;;17.84;80.02;101757.03;5046550;28;20045;-74
2023/06/25 02:25:08;;;;;;;11.75;7.53;;;;;;;17.81;80.24;101758.03;5046477;28;20065;-74
2023/06/25 02:27:35;;;;;;;9.15;6.85;;;;;;;17.78;80.44;101755.53;5045150;28;20048;-74
2023/06/25 02:30:03;;;;;;;11.13;7.63;;;;;;;17.76;80.26;101751.19;5045270;28;20538;-74
2023/06/25 02:32:30;;;;;;;9.32;7.03;;;;;;;17.74;80.34;101748.59;5046294;28;20041;-74
2023/06/25 02:34:57;;;;;;;8.60;6.85;;;;;;;17.70;80.84;101755.88;5046271;28;20533;-75
2023/06/25 02:37:24;;;;;;;9.40;7.13;;;;;;;17.72;81.72;101752.28;5046138;28;20037;-75
2023/06/25 02:39:51;;;;;;;9.30;7.40;;;;;;;17.73;81.08;101743.34;5047974;28;20050;-75
2023/06/25 02:42:18;;;;;;;11.35;8.00;;;;;;;17.66;81.41;101743.59;5043128;28;20042;-75
2023/06/25 02:44:45;;;;;;;10.05;7.40;;;;;;;17.64;81.70;101739.28;5045922;28;20489;-74
2023/06/25 02:47:13;;;;;;;9.68;7.40;;;;;;;17.68;82.04;101740.88;5044963;28;20044;-74
2023/06/25 02:49:40;;;;;;;11.60;7.95;;;;;;;17.70;82.01;101739.88;5045761;28;20045;-75
2023/06/25 02:52:07;;;;;;;9.80;7.68;;;;;;;17.69;81.51;101734.63;5045227;28;20069;-74
2023/06/25 02:54:35;;;;;;;11.90;9.00;;;;;;;17.62;81.63;101730.50;5046500;28;20065;-75
2023/06/25 02:57:02;;;;;;;9.23;7.75;;;;;;;17.56;81.58;101736.13;5042963;28;20076;-74
2023/06/25 02:59:31;;;;;;;10.98;7.70;;;;;;;17.51;81.51;101734.50;5045866;28;20045;-74
2023/06/25 03:01:58;;;;;;;11.07;7.93;;;;;;;17.45;81.71;101732.13;5060011;28;20061;-72
2023/06/25 03:04:26;;;;;;;10.85;7.85;;;;;;;17.44;82.14;101732.22;5055886;28;20042;-73
2023/06/25 03:06:53;;;;;;;11.18;8.65;;;;;;;17.45;82.66;101733.94;5042745;28;20600;-73
2023/06/25 03:09:20;;;;;;;11.50;9.07;;;;;;;17.49;83.08;101733.75;5041344;28;20128;-71
2023/06/25 03:11:49;;;;;;;13.27;9.25;;;;;;;17.55;82.94;101729.91;5057608;28;20042;-73
2023/06/25 03:14:16;;;;;;;12.00;8.70;;;;;;;17.58;82.62;101732.44;5045392;28;20049;-73
2023/06/25 03:17:02;;;;;;;14.23;9.57;;;;;;;17.61;82.36;101734.09;5045250;28;21005;-73
2023/06/25 03:19:30;;;;;;;13.68;9.75;;;;;;;17.59;82.50;101731.50;5039033;28;20518;-73
2023/06/25 03:21:58;;;;;;;16.30;10.10;;;;;;;17.60;82.95;101729.72;5039985;28;20033;-73
2023/06/25 03:24:26;;;;;;;12.00;9.18;;;;;;;17.54;83.04;101728.19;5045221;28;20044;-72
2023/06/25 03:26:53;;;;;;;12.30;9.18;;;;;;;17.53;83.58;101726.47;5028260;28;20041;-73
2023/06/25 03:29:20;;;;;;;12.45;9.85;;;;;;;17.57;83.79;101728.03;5044230;28;20587;-73
2023/06/25 03:31:49;;;;;;;14.55;10.10;;;;;;;17.62;83.44;101722.50;5045739;28;20037;-73
2023/06/25 03:34:20;;;;;;;13.05;9.73;;;;;;;17.63;83.11;101727.78;5045173;28;20046;-73
2023/06/25 03:36:47;;;;;;;15.23;10.65;;;;;;;17.63;83.39;101726.88;5043784;28;20128;-73
2023/06/25 03:39:15;;;;;;;15.45;11.27;;;;;;;17.60;83.47;101727.91;5044870;28;20042;-72
2023/06/25 03:41:42;;;;;;;13.52;10.73;;;;;;;17.60;84.04;101722.56;5060551;28;20053;-73
2023/06/25 03:44:09;;;;;;;14.07;10.60;;;;;;;17.66;83.78;101726.75;5043541;28;20045;-73
2023/06/25 03:46:36;;;;;;;15.45;11.32;;;;;;;17.75;83.61;101722.81;5043019;28;20293;-73
2023/06/25 03:49:04;;;;;;;14.48;11.43;;;;;;;17.80;83.16;101720.78;5041693;28;20111;-73
2023/06/25 03:51:32;;;;;;;15.82;11.35;;;;;;;17.80;83.42;101721.66;5049348;28;20054;-73
2023/06/25 03:54:00;;;;;;;15.20;11.18;;;;;;;17.93;83.27;101713.94;5043251;28;20103;-73
2023/06/25 03:56:27;;;;;;;13.38;9.48;;;;;;;18.04;82.42;101717.94;5037355;28;20112;-73
2023/06/25 03:58:54;;;;;;;13.20;9.57;;;;;;;18.10;82.50;101718.50;5040952;28;20048;-74
2023/06/25 04:01:22;;;;;;;14.00;10.43;;;;;;;18.16;82.37;101712.00;5033995;28;20049;-74
2023/06/25 04:03:49;;;;;;;12.95;10.40;;;;;;;18.24;82.10;101715.16;5044760;28;20476;-73
2023/06/25 04:06:16;;;;;;;15.55;10.40;;;;;;;18.32;81.34;101714.75;5054655;28;20044;-74
2023/06/25 04:08:43;;;;;;;14.48;10.55;;;;;;;18.42;81.54;101716.03;5050578;28;20053;-74
2023/06/25 04:11:12;;;;;;;14.85;9.50;;;;;;;18.66;81.02;101707.75;5029579;28;20069;-75
2023/06/25 04:13:39;;;;;;;13.77;9.77;;;;;;;18.82;80.46;101709.66;5045181;28;20041;-76
2023/06/25 04:16:08;;;;;;;13.35;10.13;;;;;;;18.92;80.24;101710.91;5040147;28;20096;-75
2023/06/25 04:18:40;;;;;;;12.60;10.25;;;;;;;18.95;79.49;101716.09;5035767;28;20129;-75
2023/06/25 04:21:07;;;;;;;12.13;9.18;;;;;;;18.95;79.17;101707.22;5040968;28;20129;-75
2023/06/25 04:23:35;;;;;;;12.13;9.20;;;;;;;18.92;79.36;101706.41;5045809;28;20034;-75
2023/06/25 04:26:02;;;;;;;12.38;9.50;;;;;;;18.96;79.25;101712.50;5043352;28;20053;-75
2023/06/25 04:28:30;;;;;;;13.30;9.63;;;;;;;19.00;79.19;101707.84;5043781;28;20125;-75
2023/06/25 04:30:57;;;;;;;13.43;10.18;;;;;;;19.04;78.82;101707.59;5043526;28;20490;-75
2023/06/25 04:33:25;;;;;;;11.88;9.57;;;;;;;19.09;78.89;101702.00;5041834;28;20128;-75
2023/06/25 04:35:52;;;;;;;14.93;10.75;;;;;;;19.13;78.65;101705.41;5045724;28;20053;-75
2023/06/25 04:38:19;;;;;;;13.48;9.73;;;;;;;19.22;78.32;101697.75;5041516;28;20534;-75
2023/06/25 04:40:46;;;;;;;12.20;9.57;;;;;;;19.30;78.41;101708.03;5056028;28;20038;-75
2023/06/25 04:43:13;;;;;;;12.50;9.45;;;;;;;19.36;78.21;101702.34;5039365;28;20057;-75
2023/06/25 04:45:41;;;;;;;13.75;9.63;;;;;;;19.45;77.77;101701.00;5034145;28;20052;-76
2023/06/25 04:48:09;;;;;;;11.95;9.00;;;;;;;19.55;77.42;101707.59;5039373;28;20133;-76
2023/06/25 04:50:37;;;;;;;17.90;9.98;;;;;;;19.62;77.25;101702.75;5034982;28;20049;-75
2023/06/25 04:53:04;;;;;;;12.65;9.63;;;;;;;19.66;77.04;101698.09;5035533;28;20100;-74
2023/06/25 04:55:31;;;;;;;10.77;8.60;;;;;;;19.74;76.76;101705.72;5030926;28;20101;-74
2023/06/25 04:57:58;;;;;;;12.70;9.13;;;;;;;19.82;76.30;101709.66;5036794;28;20100;-74
2023/06/25 05:00:25;;;;;;;12.55;9.48;;;;;;;19.92;76.12;101709.19;5032647;28;20117;-75
2023/06/25 05:02:52;;;;;;;11.45;8.95;;;;;;;19.99;76.13;101703.41;5036916;28;20581;-75
2023/06/25 05:05:19;;;;;;;12.45;8.70;;;;;;;20.14;75.66;101712.38;5035917;28;20231;-75
2023/06/25 05:07:47;;;;;;;12.82;9.98;;;;;;;20.22;75.07;101705.72;5034275;28;20928;-74
2023/06/25 05:10:16;;;;;;;12.85;9.48;;;;;;;20.30;74.94;101717.72;5036322;28;20110;-73
2023/06/25 05:12:43;;;;;;;14.27;9.55;;;;;;;20.40;75.05;101710.00;5036618;28;20466;-75
2023/06/25 05:15:12;;;;;;;12.52;8.63;;;;;;;20.58;74.79;101710.75;5036125;28;20131;-75
2023/06/25 05:17:39;;;;;;;10.93;8.45;;;;;;;21.00;73.63;101713.66;5037153;28;20142;-75
2023/06/25 05:20:08;;;;;;;12.15;8.90;;;;;;;21.30;73.03;101703.81;5041860;28;20072;-76
2023/06/25 05:22:35;;;;;;;12.77;8.45;;;;;;;22.76;69.47;101706.94;5037295;28;20041;-76
2023/06/25 05:25:02;;;;;;;10.48;7.72;;;;;;;25.23;61.33;101705.16;5037228;28;20576;-76
2023/06/25 05:27:29;;;;;;;10.10;7.40;;;;;;;25.96;58.57;101697.50;5039711;28;20042;-76
2023/06/25 05:29:57;;;;;;;9.85;6.97;;;;;;;27.20;54.65;101703.31;5034249;28;20050;-74
2023/06/25 05:32:24;;;;;;;9.68;7.60;;;;;;;29.00;49.79;101703.28;5040486;28;20053;-75
2023/06/25 05:34:51;;;;;;;13.02;7.28;;;;;;;30.37;46.20;101704.44;5045096;28;20041;-75
2023/06/25 05:37:18;;;;;;;11.80;6.95;;;;;;;31.55;43.84;101695.84;5034193;28;20402;-77
2023/06/25 05:39:45;;;;;;;10.10;7.07;;;;;;;32.59;40.85;101705.63;5033001;28;20580;-76
2023/06/25 05:42:12;;;;;;;10.90;7.03;;;;;;;33.54;39.09;101704.88;5037224;28;20050;-78
2023/06/25 05:44:39;;;;;;;9.68;7.13;;;;;;;34.35;36.82;101700.97;5041899;28;20304;-77
2023/06/25 05:47:06;;;;;;;8.07;5.65;;;;;;;34.95;35.65;101696.50;5038123;28;20622;-78
2023/06/25 05:49:33;;;;;;;9.77;6.75;;;;;;;35.40;33.44;101701.97;5044350;28;20488;-78
2023/06/25 05:52:01;;;;;;;9.05;6.78;;;;;;;35.72;32.75;101699.84;5046148;28;20588;-78
2023/06/25 05:54:28;;;;;;;9.23;6.50;;;;;;;35.97;31.75;101693.19;5044036;28;20064;-77
2023/06/25 05:56:55;;;;;;;8.80;6.47;;;;;;;36.25;31.17;101686.91;5049771;28;20038;-77
2023/06/25 05:59:23;;;;;;;6.95;5.65;;;;;;;36.54;30.75;101688.63;5045872;28;20050;-76
2023/06/25 06:01:50;;;;;;;8.82;6.60;;;;;;;36.72;30.07;101688.13;5036651;28;20049;-76
2023/06/25 06:04:17;;;;;;;10.05;6.35;;;;;;;36.96;29.48;101686.00;5036611;28;20103;-75
2023/06/25 06:06:47;;;;;;;8.95;7.00;;;;;;;37.27;29.25;101684.69;5038652;28;20073;-73
2023/06/25 06:09:14;;;;;;;8.90;7.05;;;;;;;37.44;28.64;101680.56;5044027;28;20045;-73
2023/06/25 06:11:41;;;;;;;9.13;6.80;;;;;;;37.59;28.76;101682.31;5044303;28;20524;-73
2023/06/25 06:14:08;;;;;;;7.70;6.22;;;;;;;37.74;28.12;101685.72;5060806;28;20045;-73
2023/06/25 06:16:35;;;;;;;8.65;6.97;;;;;;;37.93;28.22;101683.25;5048805;28;20042;-73
2023/06/25 06:19:02;;;;;;;9.75;6.78;;;;;;;38.08;27.65;101679.47;5045648;28;20041;-73
2023/06/25 06:21:29;;;;;;;10.23;6.85;;;;;;;37.69;27.73;101682.75;5045711;28;20818;-73
2023/06/25 06:23:56;;;;;;;8.93;6.40;;;;;;;36.27;29.26;101684.81;5057777;28;20064;-73
2023/06/25 06:26:23;;;;;;;9.68;6.55;;;;;;;33.78;32.62;101685.78;5049833;28;20045;-72
2023/06/25 06:28:51;;;;;;;8.85;6.60;;;;;;;31.60;35.88;101682.56;5045110;28;20062;-72
2023/06/25 06:31:20;;;;;;;8.15;6.22;;;;;;;29.97;38.63;101681.28;5040473;28;20044;-73
2023/06/25 06:33:48;;;;;;;9.05;6.80;;;;;;;28.74;41.17;101687.66;5048135;28;20083;-71
2023/06/25 06:36:15;;;;;;;8.13;6.65;;;;;;;27.86;43.05;101690.31;5043184;28;20494;-72
2023/06/25 06:38:42;;;;;;;10.73;7.03;;;;;;;27.19;44.54;101679.97;5046858;28;20045;-72
2023/06/25 06:41:09;;;;;;;9.02;6.88;;;;;;;26.71;46.17;101683.22;5047124;28;20156;-72
2023/06/25 06:43:36;;;;;;;13.07;6.97;;;;;;;26.31;47.43;101677.50;5045559;28;20041;-72
2023/06/25 06:46:03;;;;;;;8.75;5.65;;;;;;;26.00;48.05;101681.91;5042144;28;20105;-71
2023/06/25 06:48:34;;;;;;;11.38;7.20;;;;;;;25.78;49.02;101682.81;5038190;28;20065;-71
2023/06/25 06:51:01;;;;;;;12.27;6.85;;;;;;;25.63;49.79;101674.13;5035275;28;20668;-70
2023/06/25 06:53:28;;;;;;;12.15;6.35;;;;;;;25.48;51.07;101673.53;5038335;28;20069;-71
2023/06/25 06:55:55;;;;;;;9.32;6.03;;;;;;;25.41;51.44;101675.88;5035036;28;20562;-71
2023/06/25 06:58:22;;;;;;;9.60;6.30;;;;;;;25.37;51.94;101664.44;5039058;28;20105;-71
2023/06/25 07:00:50;;;;;;;12.13;6.57;;;;;;;25.34;51.69;101667.38;5037815;28;20042;-71
2023/06/25 07:03:17;;;;;;;10.13;7.20;;;;;;;25.31;51.91;101654.13;5043206;28;20049;-72
2023/06/25 07:05:44;;;;;;;9.05;5.97;;;;;;;25.26;51.94;101662.59;5042294;28;20093;-73
2023/06/25 07:08:12;;;;;;;10.00;6.47;;;;;;;25.28;52.33;101655.22;5043648;28;20120;-73
2023/06/25 07:10:39;;;;;;;7.45;5.68;;;;;;;25.29;52.04;101661.47;5043078;28;20053;-73
2023/06/25 07:13:06;;;;;;;8.48;6.07;;;;;;;25.34;52.26;101664.69;5051442;28;20540;-72
2023/06/25 07:15:35;;;;;;;7.25;5.30;;;;;;;25.42;52.93;101661.41;5058725;28;20033;-72
2023/06/25 07:18:03;;;;;;;8.95;5.95;;;;;;;25.49;52.63;101667.13;5042574;28;20037;-72
2023/06/25 07:20:30;;;;;;;8.40;6.05;;;;;;;25.53;52.17;101666.78;5044107;28;20090;-72
2023/06/25 07:22:57;;;;;;;9.35;4.97;;;;;;;25.62;52.21;101664.31;5064074;28;20452;-72
2023/06/25 07:25:24;;;;;;;10.25;5.35;;;;;;;25.70;51.64;101662.69;5066348;28;20096;-72
2023/06/25 07:27:51;;;;;;;6.35;4.68;;;;;;;25.80;51.22;101667.31;5066493;28;20049;-73
2023/06/25 07:30:18;;;;;;;7.60;4.70;;;;;;;25.89;50.71;101666.59;5044098;28;20048;-72
2023/06/25 07:32:45;;;;;;;6.50;4.60;;;;;;;25.98;50.72;101656.84;5027790;28;20555;-66
2023/06/25 07:35:13;;;;;;;6.00;4.53;;;;;;;26.12;50.62;101663.81;5044209;28;20045;-67
2023/06/25 07:37:40;;;;;;;7.57;4.47;;;;;;;26.27;50.73;101662.56;5041090;28;20530;-67
2023/06/25 07:40:08;;;;;;;7.15;5.13;;;;;;;26.43;50.35;101659.41;5045268;28;20042;-67
2023/06/25 07:42:35;;;;;;;6.85;5.10;;;;;;;26.51;50.52;101658.72;5041445;28;20429;-67
2023/06/25 07:45:02;;;;;;;8.90;5.60;;;;;;;26.60;49.83;101655.25;5042236;28;20120;-68
2023/06/25 07:47:29;;;;;;;6.85;4.97;;;;;;;26.68;49.26;101649.16;5037693;28;20131;-67
2023/06/25 07:49:58;;;;;;;7.00;4.55;;;;;;;26.71;47.95;101653.47;5040942;28;20521;-68
2023/06/25 07:52:25;;;;;;;7.78;5.20;;;;;;;26.75;46.99;101644.97;5046227;28;20046;-68
2023/06/25 07:54:53;;;;;;;6.93;4.65;;;;;;;26.79;46.91;101654.53;5045156;28;20052;-67
2023/06/25 07:57:20;;;;;;;8.50;5.13;;;;;;;26.86;47.03;101652.16;5045664;28;20095;-67
2023/06/25 07:59:48;;;;;;;25.08;7.90;;;;;;;26.91;47.04;101655.31;5043295;28;20041;-67
2023/06/25 08:02:21;;;;;;;29.30;9.38;;;;;;;26.96;47.04;101654.94;5041111;28;20125;-68
2023/06/25 08:04:49;;;;;;;8.40;6.03;;;;;;;27.01;46.50;101655.38;5044945;28;20053;-68
2023/06/25 08:07:17;;;;;;;7.40;5.85;;;;;;;27.03;46.40;101652.53;5042624;28;20046;-68
2023/06/25 08:09:44;;;;;;;7.20;5.15;;;;;;;27.07;46.88;101651.28;5045532;28;20045;-68
2023/06/25 08:12:14;;;;;;;7.80;5.68;;;;;;;27.13;47.10;101651.59;5041520;28;20572;-68
2023/06/25 08:14:43;;;;;;;8.52;5.90;;;;;;;27.25;46.82;101652.34;5044951;28;20073;-68
2023/06/25 08:17:10;;;;;;;8.75;6.30;;;;;;;27.29;46.05;101652.91;5044417;28;20072;-68
2023/06/25 08:19:37;;;;;;;9.73;6.45;;;;;;;27.32;46.29;101643.69;5044732;28;20174;-67
2023/06/25 08:22:04;;;;;;;8.70;6.72;;;;;;;27.36;46.77;101650.53;5046596;28;20560;-67
2023/06/25 08:24:32;;;;;;;13.77;6.28;;;;;;;27.45;47.24;101643.47;5042002;28;20049;-67
2023/06/25 08:26:59;;;;;;;10.23;6.22;;;;;;;27.61;47.09;101648.34;5043360;28;20584;-67
2023/06/25 08:29:26;;;;;;;9.95;6.57;;;;;;;27.72;46.76;101640.13;5045375;28;20041;-67
2023/06/25 08:31:53;;;;;;;9.73;6.75;;;;;;;27.81;46.69;101652.81;5027688;28;20046;-67
2023/06/25 08:34:20;;;;;;;12.82;6.40;;;;;;;27.89;45.94;101643.97;5036645;28;20048;-67
2023/06/25 08:36:47;;;;;;;7.25;6.03;;;;;;;27.97;45.79;101643.25;5032776;28;20068;-67
2023/06/25 08:39:15;;;;;;;10.95;6.47;;;;;;;28.02;45.95;101641.00;5035374;28;20046;-67
2023/06/25 08:41:42;;;;;;;9.23;5.57;;;;;;;28.10;44.69;101635.75;5044157;28;20037;-67
2023/06/25 08:44:09;;;;;;;6.55;5.13;;;;;;;28.19;45.01;101636.72;5044618;28;20048;-68
2023/06/25 08:46:45;;;;;;;7.55;5.15;;;;;;;28.29;44.72;101631.31;5039491;28;20053;-67
2023/06/25 08:49:15;;;;;;;9.50;5.07;;;;;;;28.35;43.60;101626.16;5046795;28;20060;-67
2023/06/25 08:51:43;;;;;;;8.98;5.47;;;;;;;28.41;42.79;101623.88;5045095;28;20124;-67
2023/06/25 08:54:10;;;;;;;8.07;6.30;;;;;;;28.47;43.68;101617.88;5037326;28;20144;-67
2023/06/25 08:56:39;;;;;;;8.20;5.57;;;;;;;28.58;43.72;101614.13;5044877;28;20185;-67
2023/06/25 08:59:06;;;;;;;8.48;4.80;;;;;;;28.70;43.24;101614.81;5044759;28;20045;-67
2023/06/25 09:01:35;;;;;;;6.05;4.13;;;;;;;28.79;42.93;101619.41;5038978;28;20050;-67
2023/06/25 09:04:02;;;;;;;5.88;4.43;;;;;;;28.91;42.31;101622.78;5045477;28;20042;-68
2023/06/25 09:06:29;;;;;;;7.40;4.07;;;;;;;29.03;42.53;101618.88;5044797;28;20041;-67
2023/06/25 09:08:57;;;;;;;6.57;4.03;;;;;;;29.16;41.51;101623.09;5038579;28;20066;-68
2023/06/25 09:11:31;;;;;;;6.47;3.78;;;;;;;29.27;41.26;101614.75;5038161;28;20056;-67
2023/06/25 09:13:59;;;;;;;8.85;3.70;;;;;;;29.37;40.67;101604.72;5036925;28;20096;-67
2023/06/25 09:16:27;;;;;;;4.72;3.83;;;;;;;29.50;41.35;101614.38;5037588;28;20536;-67
2023/06/25 09:18:59;;;;;;;7.07;3.90;;;;;;;29.61;40.73;101607.88;5041861;28;20103;-67
2023/06/25 09:21:36;;;;;;;6.90;3.55;;;;;;;29.73;40.48;101603.91;5027671;28;20049;-68
2023/06/25 09:24:19;;;;;;;6.15;3.67;;;;;;;29.83;39.51;101603.84;5033276;28;20042;-68
2023/06/25 09:26:53;;;;;;;6.13;3.87;;;;;;;29.89;39.48;101600.50;5032683;28;20616;-68
2023/06/25 09:29:22;;;;;;;4.80;3.90;;;;;;;29.97;39.46;101605.19;5034657;28;20045;-67
2023/06/25 09:31:50;;;;;;;5.57;3.63;;;;;;;30.01;39.42;101590.28;5033202;28;20081;-67
2023/06/25 09:34:18;;;;;;;7.18;3.50;;;;;;;30.08;39.28;101594.06;5032659;28;20065;-68
2023/06/25 09:36:46;;;;;;;5.18;3.60;;;;;;;30.15;39.03;101595.16;5033756;28;20042;-68
2023/06/25 09:39:13;;;;;;;6.93;3.85;;;;;;;30.26;39.14;101595.91;5039371;28;20092;-68
2023/06/25 09:41:41;;;;;;;7.75;3.75;;;;;;;30.37;38.95;101591.06;5037482;28;20038;-68
2023/06/25 09:44:10;;;;;;;4.90;3.38;;;;;;;30.44;38.45;101588.56;5031012;28;20053;-68
2023/06/25 09:46:40;;;;;;;4.60;3.17;;;;;;;30.56;37.80;101594.63;5033243;28;20042;-68
2023/06/25 09:49:08;;;;;;;5.20;3.50;;;;;;;30.68;36.81;101587.03;5031752;28;20132;-68
2023/06/25 09:51:56;;;;;;;7.68;3.20;;;;;;;30.74;36.50;101589.09;5036349;28;20045;-68
2023/06/25 09:54:24;;;;;;;10.95;3.50;;;;;;;30.80;36.60;101577.59;5032528;28;20050;-68
2023/06/25 09:56:55;;;;;;;6.20;3.72;;;;;;;30.86;36.04;101589.69;5038095;28;20042;-68
2023/06/25 09:59:22;;;;;;;6.53;3.33;;;;;;;30.86;36.91;101584.25;5035480;28;20038;-68
2023/06/25 10:01:52;;;;;;;127.60;118.00;;;;;;;30.90;36.62;101584.78;5037431;28;20932;-67
2023/06/25 10:04:19;;;;;;;5.07;3.72;;;;;;;30.99;36.07;101587.34;5035043;28;20549;-68
2023/06/25 10:06:47;;;;;;;11.50;3.40;;;;;;;31.06;36.43;101579.38;5029644;28;20052;-67
2023/06/25 10:09:14;;;;;;;8.63;3.40;;;;;;;31.16;36.27;101582.03;5038800;28;20042;-67
2023/06/25 10:11:52;;;;;;;4.05;3.35;;;;;;;31.26;35.99;101579.13;5035906;28;20068;-68
2023/06/25 10:14:19;;;;;;;5.28;3.50;;;;;;;31.34;36.21;101575.59;5039230;28;20041;-67
2023/06/25 10:16:55;;;;;;;5.85;3.45;;;;;;;31.43;36.14;101580.03;5036624;28;20534;-68
2023/06/25 10:19:25;;;;;;;6.13;3.53;;;;;;;31.48;36.02;101574.97;5035127;28;20049;-67
2023/06/25 10:22:16;;;;;;;5.18;3.70;;;;;;;31.53;35.01;101564.41;5035582;28;20048;-68
2023/06/25 10:24:51;;;;;;;5.80;3.35;;;;;;;31.48;35.53;101564.06;5040360;28;20037;-68
2023/06/25 10:27:24;;;;;;;5.65;3.70;;;;;;;31.50;35.93;101562.00;5047168;28;20498;-68
2023/06/25 10:29:57;;;;;;;4.38;3.60;;;;;;;31.56;35.93;101553.19;5045815;28;20515;-68
2023/06/25 10:32:28;;;;;;;5.60;3.50;;;;;;;31.63;35.57;101561.53;5045881;28;20120;-68
2023/06/25 10:35:00;;;;;;;6.90;3.42;;;;;;;31.73;34.84;101545.91;5041575;28;20136;-68
2023/06/25 10:37:34;;;;;;;5.03;3.53;;;;;;;31.80;34.57;101545.22;5044239;28;20050;-68
2023/06/25 10:40:10;;;;;;;5.18;3.42;;;;;;;31.82;33.58;101545.91;5039219;28;20065;-68
2023/06/25 10:42:38;;;;;;;7.50;3.30;;;;;;;31.83;34.11;101547.59;5046909;28;20054;-68
2023/06/25 10:45:07;;;;;;;4.18;3.38;;;;;;;31.86;33.98;101544.53;5040373;28;20042;-68
2023/06/25 10:47:34;;;;;;;6.45;3.13;;;;;;;31.93;34.45;101540.13;5036856;28;20042;-68
2023/06/25 10:50:01;;;;;;;3.80;3.22;;;;;;;32.07;34.98;101541.28;5041816;28;20038;-68
2023/06/25 10:52:29;;;;;;;8.98;3.38;;;;;;;32.22;33.52;101536.81;5054568;28;20044;-68
2023/06/25 10:54:56;;;;;;;4.13;3.47;;;;;;;32.27;33.14;101530.88;5050338;28;20052;-68
2023/06/25 10:57:23;;;;;;;4.80;3.53;;;;;;;32.30;33.51;101537.88;5045766;28;20152;-68
2023/06/25 10:59:51;;;;;;;5.90;3.00;;;;;;;32.34;32.44;101531.91;5063109;28;20045;-68
2023/06/25 11:02:21;;;;;;;3.83;3.40;;;;;;;32.39;32.05;101525.94;5045966;28;20068;-68
2023/06/25 11:04:58;;;;;;;3.97;3.00;;;;;;;32.41;32.56;101533.91;5041603;28;20046;-68
2023/06/25 11:07:26;;;;;;;5.07;3.10;;;;;;;32.45;32.33;101529.84;5040730;28;20060;-68
2023/06/25 11:09:58;;;;;;;5.90;3.20;;;;;;;32.50;32.45;101522.81;5037710;28;20048;-68
2023/06/25 11:12:27;;;;;;;5.88;3.13;;;;;;;32.55;32.61;101516.84;5039971;28;20042;-68
2023/06/25 11:14:54;;;;;;;3.95;2.90;;;;;;;32.67;31.09;101512.66;5038626;28;20041;-67
2023/06/25 11:17:25;;;;;;;4.88;2.92;;;;;;;32.74;31.84;101511.97;5037893;28;20124;-68
2023/06/25 11:19:57;;;;;;;6.30;3.03;;;;;;;32.88;32.33;101508.53;5047612;28;20050;-68
2023/06/25 11:22:26;;;;;;;4.90;3.03;;;;;;;33.09;31.62;101509.78;5041865;28;20042;-68
2023/06/25 11:24:53;;;;;;;4.93;2.78;;;;;;;33.25;31.71;101508.81;5042723;28;20045;-68
2023/06/25 11:27:39;;;;;;;3.08;2.78;;;;;;;33.41;30.97;101508.75;5041922;28;20080;-68